Dallas, Texas
Traffic Map
Current Weather Conditions
Dallas, Texas
Overcast Haze
Overcast

Feels Like: -3°
Wind Chill: -3° Ceiling: 500
Heat Index: Visibility: 5mi
Dew Point: Wind: 12mph
Humidity: 96% Direction: 340° (NNW)
Pressure: 30.3in Gusts: 0mph
Raw Report DataKDAL 220529Z 34010KT 5SM BR OVC005 02/01 A3030 RMK AO2 T00170011 $
Traffic Incident Summary
Active as of:
Severity:
Category:
InformationThere was an issue retrieving the traffic information for this location. Please try a different location or try again shortly.
Advertisements